Time;durP1;ratioP1;P1;durP2;ratioP2;P2;SDS_P1;SDS_P2;PMS_P1;PMS_P2;Temp;Humidity;BMP_temperature;BMP_pressure;BME280_temperature;BME280_humidity;BME280_pressure;Samples;Min_cycle;Max_cycle;Signal;HPM_P1;HPM_P2
2023/05/02 00:02:04;;;;;;;22.70;11.65;;;;;;;;;;5015833;28;20052;-78
2023/05/02 00:04:30;;;;;;;21.95;11.52;;;;;;;;;;5015627;28;20100;-78
2023/05/02 00:06:55;;;;;;;21.20;11.18;;;;;;;;;;5015689;28;20115;-79
2023/05/02 00:09:21;;;;;;;23.70;11.85;;;;;;;;;;5015530;28;20049;-78
2023/05/02 00:11:46;;;;;;;20.08;11.32;;;;;;;;;;5015650;28;20034;-78
2023/05/02 00:14:12;;;;;;;25.92;12.00;;;;;;;;;;5015205;28;20033;-78
2023/05/02 00:16:37;;;;;;;18.30;10.77;;;;;;;;;;5015380;28;20018;-75
2023/05/02 00:19:02;;;;;;;20.70;11.45;;;;;;;;;;5015345;28;20080;-78
2023/05/02 00:21:28;;;;;;;20.02;11.07;;;;;;;;;;5034465;28;20083;-76
2023/05/02 00:23:57;;;;;;;19.25;10.20;;;;;;;;;;5034957;28;20025;-78
2023/05/02 00:26:22;;;;;;;18.02;9.95;;;;;;;;;;5034589;28;20033;-73
2023/05/02 00:28:48;;;;;;;20.30;10.68;;;;;;;;;;5035008;28;20075;-73
2023/05/02 00:31:14;;;;;;;20.55;10.68;;;;;;;;;;5034911;28;20029;-78
2023/05/02 00:33:39;;;;;;;16.95;9.60;;;;;;;;;;5034965;28;20117;-78
2023/05/02 00:36:13;;;;;;;20.20;8.90;;;;;;;;;;5034800;28;20067;-78
2023/05/02 00:38:39;;;;;;;19.25;8.88;;;;;;;;;;5034857;28;20041;-78
2023/05/02 00:41:05;;;;;;;17.67;9.40;;;;;;;;;;5034519;28;20033;-78
2023/05/02 00:43:30;;;;;;;19.90;8.95;;;;;;;;;;5034748;28;20025;-78
2023/05/02 00:45:56;;;;;;;18.92;8.60;;;;;;;;;;5034693;28;20033;-77
2023/05/02 00:48:22;;;;;;;16.40;8.80;;;;;;;;;;5034674;28;20083;-75
2023/05/02 00:50:47;;;;;;;17.33;9.00;;;;;;;;;;5034535;28;20384;-78
2023/05/02 00:53:14;;;;;;;16.80;8.75;;;;;;;;;;5034605;28;20021;-73
2023/05/02 00:55:39;;;;;;;13.80;8.65;;;;;;;;;;5034146;28;20025;-79
2023/05/02 00:58:09;;;;;;;16.48;8.93;;;;;;;;;;5034363;28;20018;-78
2023/05/02 01:00:55;;;;;;;18.67;8.20;;;;;;;;;;5034479;28;20025;-78
2023/05/02 01:03:54;;;;;;;13.93;8.02;;;;;;;;;;5027005;28;20479;-79
2023/05/02 01:06:41;;;;;;;16.63;9.15;;;;;;;;;;5034369;28;20037;-79
2023/05/02 01:09:24;;;;;;;16.83;8.85;;;;;;;;;;5034110;28;20040;-80
2023/05/02 01:12:19;;;;;;;15.13;8.80;;;;;;;;;;5033834;28;20475;-77
2023/05/02 01:14:50;;;;;;;14.13;8.13;;;;;;;;;;5034258;28;20091;-78
2023/05/02 01:17:17;;;;;;;20.83;7.95;;;;;;;;;;5033961;28;20040;-78
2023/05/02 01:19:52;;;;;;;15.35;8.00;;;;;;;;;;5033823;28;20033;-73
2023/05/02 01:22:20;;;;;;;13.70;7.47;;;;;;;;;;5033961;28;20026;-79
2023/05/02 01:24:55;;;;;;;15.40;8.15;;;;;;;;;;5033562;28;20026;-79
2023/05/02 01:27:21;;;;;;;15.52;8.18;;;;;;;;;;5033571;28;20053;-76
2023/05/02 01:29:50;;;;;;;15.02;8.45;;;;;;;;;;5033685;28;20026;-79
2023/05/02 01:32:18;;;;;;;14.48;8.15;;;;;;;;;;5033636;28;20029;-78
2023/05/02 01:34:46;;;;;;;13.65;8.52;;;;;;;;;;5032403;28;20386;-79
2023/05/02 01:37:13;;;;;;;14.80;8.13;;;;;;;;;;5033587;28;20029;-78
2023/05/02 01:39:41;;;;;;;16.15;8.55;;;;;;;;;;5032114;28;20025;-71
2023/05/02 01:42:06;;;;;;;15.15;8.95;;;;;;;;;;5033489;28;20057;-74
2023/05/02 01:44:35;;;;;;;18.90;8.98;;;;;;;;;;5033474;28;20470;-79
2023/05/02 01:47:04;;;;;;;15.63;8.35;;;;;;;;;;5033506;28;20025;-79
2023/05/02 01:49:31;;;;;;;19.90;9.15;;;;;;;;;;5033414;28;20083;-75
2023/05/02 01:52:02;;;;;;;20.25;9.70;;;;;;;;;;5033498;28;20034;-78
2023/05/02 01:54:29;;;;;;;17.23;9.13;;;;;;;;;;5032921;28;20467;-79
2023/05/02 01:56:55;;;;;;;19.73;10.20;;;;;;;;;;5033354;28;20040;-75
2023/05/02 01:59:22;;;;;;;18.88;10.57;;;;;;;;;;5033425;28;20111;-73
2023/05/02 02:01:50;;;;;;;18.20;9.55;;;;;;;;;;5033168;28;20039;-74
2023/05/02 02:04:18;;;;;;;20.40;9.65;;;;;;;;;;5033144;28;20025;-77
2023/05/02 02:06:50;;;;;;;18.85;9.35;;;;;;;;;;5033171;28;20025;-76
2023/05/02 02:09:16;;;;;;;18.48;9.50;;;;;;;;;;5032965;28;20208;-76
2023/05/02 02:12:14;;;;;;;18.77;10.30;;;;;;;;;;5032588;28;20092;-79
2023/05/02 02:14:45;;;;;;;22.25;10.50;;;;;;;;;;5032935;28;20045;-78
2023/05/02 02:17:35;;;;;;;21.52;10.82;;;;;;;;;;5033089;28;20033;-78
2023/05/02 02:20:05;;;;;;;20.67;9.73;;;;;;;;;;5033036;28;20506;-78
2023/05/02 02:22:35;;;;;;;20.27;10.80;;;;;;;;;;5032750;28;20605;-78
2023/05/02 02:25:04;;;;;;;18.45;10.40;;;;;;;;;;5033050;28;20259;-75
2023/05/02 02:27:29;;;;;;;20.38;10.32;;;;;;;;;;5032916;28;20426;-78
2023/05/02 02:29:55;;;;;;;20.13;10.45;;;;;;;;;;5032915;28;20022;-75
2023/05/02 02:32:20;;;;;;;18.70;9.75;;;;;;;;;;5032933;28;20383;-75
2023/05/02 02:34:45;;;;;;;19.02;10.50;;;;;;;;;;5032825;28;20060;-75
2023/05/02 02:37:16;;;;;;;20.52;9.77;;;;;;;;;;5032537;28;20431;-75
2023/05/02 02:39:45;;;;;;;19.83;10.23;;;;;;;;;;5032905;28;20498;-76
2023/05/02 02:42:38;;;;;;;20.30;10.93;;;;;;;;;;5032738;28;20471;-76
2023/05/02 02:45:04;;;;;;;20.92;10.48;;;;;;;;;;5032802;28;20072;-79
2023/05/02 02:47:41;;;;;;;24.05;11.05;;;;;;;;;;5032750;28;20025;-79
2023/05/02 02:50:18;;;;;;;25.25;10.90;;;;;;;;;;5032775;28;20026;-72
2023/05/02 02:52:56;;;;;;;21.15;11.02;;;;;;;;;;5032595;28;20025;-79
2023/05/02 02:55:46;;;;;;;19.35;10.55;;;;;;;;;;5032759;28;20025;-75
2023/05/02 02:58:20;;;;;;;16.92;9.63;;;;;;;;;;5032847;28;20030;-78
2023/05/02 03:00:46;;;;;;;18.92;10.30;;;;;;;;;;5032829;28;20030;-79
2023/05/02 03:03:14;;;;;;;21.02;10.05;;;;;;;;;;5032617;28;20036;-78
2023/05/02 03:05:42;;;;;;;18.75;9.50;;;;;;;;;;5032243;28;20072;-78
2023/05/02 03:08:08;;;;;;;19.02;10.05;;;;;;;;;;5032279;28;20034;-79
2023/05/02 03:10:34;;;;;;;20.33;9.43;;;;;;;;;;5032503;28;20032;-79
2023/05/02 03:12:59;;;;;;;20.92;9.40;;;;;;;;;;5032448;28;20029;-69
2023/05/02 03:15:50;;;;;;;17.13;8.82;;;;;;;;;;5032449;28;20025;-78
2023/05/02 03:18:16;;;;;;;18.10;9.25;;;;;;;;;;5032445;28;20025;-78
2023/05/02 03:20:41;;;;;;;15.63;9.15;;;;;;;;;;5031879;28;20034;-76
2023/05/02 03:23:07;;;;;;;26.88;10.30;;;;;;;;;;5035557;28;20025;-78
2023/05/02 03:25:33;;;;;;;20.80;8.35;;;;;;;;;;5035974;28;20440;-72
2023/05/02 03:27:58;;;;;;;19.40;8.82;;;;;;;;;;5035932;28;20479;-77
2023/05/02 03:30:24;;;;;;;19.15;8.30;;;;;;;;;;5035801;28;20026;-79
2023/05/02 03:32:49;;;;;;;16.17;7.93;;;;;;;;;;5035944;28;20030;-79
2023/05/02 03:35:15;;;;;;;19.30;8.10;;;;;;;;;;5035746;28;20052;-76
2023/05/02 03:37:41;;;;;;;22.40;8.15;;;;;;;;;;5036097;28;20510;-79
2023/05/02 03:40:07;;;;;;;27.70;11.15;;;;;;;;;;5035625;28;20038;-78
2023/05/02 03:42:40;;;;;;;31.17;8.70;;;;;;;;;;5035765;28;20018;-71
2023/05/02 03:45:09;;;;;;;30.08;8.45;;;;;;;;;;5035626;28;20028;-79
2023/05/02 03:47:34;;;;;;;15.82;5.88;;;;;;;;;;5035748;28;20028;-79
2023/05/02 03:50:00;;;;;;;11.38;5.43;;;;;;;;;;5035539;28;20033;-79
2023/05/02 03:52:27;;;;;;;12.45;4.88;;;;;;;;;;5035588;28;20379;-77
2023/05/02 03:54:52;;;;;;;11.23;5.18;;;;;;;;;;5033803;28;20030;-77
2023/05/02 03:57:18;;;;;;;11.98;4.88;;;;;;;;;;5035589;28;20028;-75
2023/05/02 03:59:44;;;;;;;10.55;4.80;;;;;;;;;;5035622;28;20022;-77
2023/05/02 04:02:13;;;;;;;9.52;5.18;;;;;;;;;;5035520;28;20025;-77
2023/05/02 04:04:40;;;;;;;13.75;5.65;;;;;;;;;;5035189;28;20021;-76
2023/05/02 04:07:06;;;;;;;9.32;4.53;;;;;;;;;;5035328;28;20530;-78
2023/05/02 04:09:33;;;;;;;10.85;5.00;;;;;;;;;;5035259;28;20135;-77
2023/05/02 04:11:58;;;;;;;8.25;5.03;;;;;;;;;;5035270;28;20030;-78
2023/05/02 04:14:24;;;;;;;8.85;5.53;;;;;;;;;;5035204;28;20030;-78
2023/05/02 04:16:50;;;;;;;8.50;4.95;;;;;;;;;;5035272;28;20033;-75
2023/05/02 04:19:17;;;;;;;11.57;5.60;;;;;;;;;;5034934;28;20136;-78
2023/05/02 04:21:44;;;;;;;13.73;5.40;;;;;;;;;;5035021;28;20059;-76
2023/05/02 04:24:09;;;;;;;10.95;5.07;;;;;;;;;;5035118;28;20029;-75
2023/05/02 04:26:35;;;;;;;8.77;5.30;;;;;;;;;;5034804;28;20064;-78
2023/05/02 04:29:01;;;;;;;10.77;5.13;;;;;;;;;;5034895;28;20036;-77
2023/05/02 04:31:26;;;;;;;9.68;5.32;;;;;;;;;;5034885;28;20033;-79
2023/05/02 04:33:52;;;;;;;12.50;5.85;;;;;;;;;;5034044;28;20060;-78
2023/05/02 04:36:20;;;;;;;18.83;5.85;;;;;;;;;;5034744;28;20025;-77
2023/05/02 04:38:45;;;;;;;8.23;3.70;;;;;;;;;;5034763;28;20113;-78
2023/05/02 04:41:12;;;;;;;13.93;5.10;;;;;;;;;;5034522;28;20057;-76
2023/05/02 04:43:37;;;;;;;13.75;5.28;;;;;;;;;;5034537;28;20040;-78
2023/05/02 04:46:03;;;;;;;7.90;4.03;;;;;;;;;;5033410;28;20029;-79
2023/05/02 04:48:28;;;;;;;8.73;4.70;;;;;;;;;;5034284;28;20095;-78
2023/05/02 04:50:54;;;;;;;9.70;4.75;;;;;;;;;;5034564;28;20025;-75
2023/05/02 04:53:22;;;;;;;12.35;5.10;;;;;;;;;;5034222;28;20037;-78
2023/05/02 04:55:47;;;;;;;8.55;4.57;;;;;;;;;;5034284;28;20021;-77
2023/05/02 04:58:13;;;;;;;7.35;4.10;;;;;;;;;;5034528;28;20383;-76
2023/05/02 05:00:38;;;;;;;7.10;3.85;;;;;;;;;;5034265;28;20030;-77
2023/05/02 05:03:05;;;;;;;11.48;4.90;;;;;;;;;;5033938;28;20036;-74
2023/05/02 05:05:31;;;;;;;12.20;4.57;;;;;;;;;;5034318;28;20470;-75
2023/05/02 05:07:56;;;;;;;12.85;4.35;;;;;;;;;;5033810;28;20037;-75
2023/05/02 05:10:22;;;;;;;9.77;4.30;;;;;;;;;;5034187;28;20083;-78
2023/05/02 05:12:48;;;;;;;8.63;3.97;;;;;;;;;;5034031;28;20036;-79
2023/05/02 05:15:14;;;;;;;13.38;4.90;;;;;;;;;;5033785;28;20036;-79
2023/05/02 05:17:40;;;;;;;9.90;4.05;;;;;;;;;;5033975;28;20029;-78
2023/05/02 05:20:08;;;;;;;9.88;4.18;;;;;;;;;;5033641;28;20037;-79
2023/05/02 05:22:40;;;;;;;6.75;3.92;;;;;;;;;;5033840;28;20025;-77
2023/05/02 05:25:06;;;;;;;8.88;4.63;;;;;;;;;;5033610;28;20022;-71
2023/05/02 05:27:34;;;;;;;7.68;4.43;;;;;;;;;;5033713;28;20041;-78
2023/05/02 05:29:59;;;;;;;11.85;4.65;;;;;;;;;;5033664;28;20036;-79
2023/05/02 05:32:25;;;;;;;11.13;4.90;;;;;;;;;;5033526;28;20037;-77
2023/05/02 05:34:51;;;;;;;8.70;4.70;;;;;;;;;;5033782;28;20025;-79
2023/05/02 05:37:17;;;;;;;8.13;5.05;;;;;;;;;;5033615;28;20040;-75
2023/05/02 05:39:43;;;;;;;11.98;5.85;;;;;;;;;;5033483;28;20021;-78
2023/05/02 05:42:08;;;;;;;13.98;6.85;;;;;;;;;;5033681;28;20475;-78
2023/05/02 05:44:35;;;;;;;9.38;4.82;;;;;;;;;;5033041;28;20025;-79
2023/05/02 05:47:00;;;;;;;9.80;6.00;;;;;;;;;;5032930;28;20025;-77
2023/05/02 05:49:26;;;;;;;11.38;5.72;;;;;;;;;;5033434;28;20336;-71
2023/05/02 05:51:51;;;;;;;9.10;5.07;;;;;;;;;;5033395;28;20379;-74
2023/05/02 05:54:17;;;;;;;11.40;5.43;;;;;;;;;;5033274;28;20037;-73
2023/05/02 05:56:43;;;;;;;13.00;6.30;;;;;;;;;;5033299;28;20032;-76
2023/05/02 05:59:08;;;;;;;11.32;5.63;;;;;;;;;;5033231;28;20062;-75
2023/05/02 06:01:34;;;;;;;11.68;5.82;;;;;;;;;;5033098;28;20025;-78
2023/05/02 06:04:01;;;;;;;13.27;5.75;;;;;;;;;;5033200;28;20060;-74
2023/05/02 06:06:27;;;;;;;11.02;6.38;;;;;;;;;;5031950;28;20340;-74
2023/05/02 06:08:53;;;;;;;9.63;5.47;;;;;;;;;;5031799;28;20033;-77
2023/05/02 06:11:18;;;;;;;9.73;5.72;;;;;;;;;;5033110;28;20052;-68
2023/05/02 06:13:44;;;;;;;11.30;6.32;;;;;;;;;;5032790;28;20468;-69
2023/05/02 06:16:09;;;;;;;10.93;5.82;;;;;;;;;;5032780;28;20368;-79
2023/05/02 06:18:35;;;;;;;12.57;5.90;;;;;;;;;;5033056;28;20386;-78
2023/05/02 06:21:06;;;;;;;10.45;5.38;;;;;;;;;;5032689;28;20033;-73
2023/05/02 06:23:31;;;;;;;10.93;6.20;;;;;;;;;;5033008;28;20022;-78
2023/05/02 06:25:59;;;;;;;8.25;5.07;;;;;;;;;;5032796;28;20057;-79
2023/05/02 06:28:25;;;;;;;12.15;6.22;;;;;;;;;;5032553;28;20033;-79
2023/05/02 06:31:04;;;;;;;13.60;5.93;;;;;;;;;;5032817;28;20029;-78
2023/05/02 06:33:31;;;;;;;10.57;5.88;;;;;;;;;;5032838;28;20029;-78
2023/05/02 06:35:56;;;;;;;9.70;6.07;;;;;;;;;;5032808;28;20017;-75
2023/05/02 06:38:22;;;;;;;9.30;6.28;;;;;;;;;;5032827;28;20390;-74
2023/05/02 06:40:48;;;;;;;12.32;6.15;;;;;;;;;;5033012;28;20080;-77
2023/05/02 06:43:14;;;;;;;9.18;5.40;;;;;;;;;;5032769;28;20049;-76
2023/05/02 06:45:40;;;;;;;11.20;5.72;;;;;;;;;;5032364;28;20471;-77
2023/05/02 06:48:06;;;;;;;8.30;5.63;;;;;;;;;;5032400;28;20061;-78
2023/05/02 06:50:32;;;;;;;9.30;5.55;;;;;;;;;;5032585;28;20510;-76
2023/05/02 06:52:58;;;;;;;12.07;5.72;;;;;;;;;;5032539;28;20036;-78
2023/05/02 06:55:23;;;;;;;10.82;6.18;;;;;;;;;;5032620;28;20101;-77
2023/05/02 06:57:49;;;;;;;9.60;5.43;;;;;;;;;;5035695;28;20539;-76
2023/05/02 07:00:16;;;;;;;10.15;5.95;;;;;;;;;;5036654;28;20169;-77
2023/05/02 07:02:43;;;;;;;10.95;5.97;;;;;;;;;;5036424;28;20419;-78
2023/05/02 07:05:09;;;;;;;9.15;5.63;;;;;;;;;;5036538;28;20039;-78
2023/05/02 07:07:34;;;;;;;12.52;5.78;;;;;;;;;;5036118;28;20116;-75
2023/05/02 07:10:00;;;;;;;11.35;6.07;;;;;;;;;;5036247;28;20025;-77
2023/05/02 07:12:25;;;;;;;8.18;5.35;;;;;;;;;;5036323;28;20040;-78
2023/05/02 07:14:51;;;;;;;9.27;5.55;;;;;;;;;;5036241;28;20467;-77
2023/05/02 07:17:16;;;;;;;9.70;4.72;;;;;;;;;;5036318;28;20045;-77
2023/05/02 07:19:42;;;;;;;8.77;4.35;;;;;;;;;;5035900;28;20104;-77
2023/05/02 07:22:07;;;;;;;9.90;4.80;;;;;;;;;;5036278;28;20100;-78
2023/05/02 07:24:33;;;;;;;9.73;5.07;;;;;;;;;;5036165;28;20044;-76
2023/05/02 07:26:58;;;;;;;7.18;4.40;;;;;;;;;;5035417;28;20477;-76
2023/05/02 07:29:24;;;;;;;8.80;5.45;;;;;;;;;;5035869;28;20037;-77
2023/05/02 07:31:50;;;;;;;8.23;5.00;;;;;;;;;;5036007;28;20037;-73
2023/05/02 07:34:16;;;;;;;9.45;5.13;;;;;;;;;;5035828;28;20033;-71
2023/05/02 07:36:41;;;;;;;10.88;5.43;;;;;;;;;;5035789;28;20087;-78
2023/05/02 07:39:06;;;;;;;15.98;5.93;;;;;;;;;;5035869;28;20060;-77
2023/05/02 07:41:32;;;;;;;8.27;5.60;;;;;;;;;;5035673;28;20448;-80
2023/05/02 07:43:57;;;;;;;9.23;5.13;;;;;;;;;;5035810;28;20028;-77
2023/05/02 07:46:23;;;;;;;12.40;5.65;;;;;;;;;;5035601;28;20022;-76
2023/05/02 07:48:49;;;;;;;12.50;5.70;;;;;;;;;;5035658;28;20463;-78
2023/05/02 07:51:15;;;;;;;9.70;5.50;;;;;;;;;;5035680;28;20045;-78
2023/05/02 07:53:41;;;;;;;11.02;5.60;;;;;;;;;;5035372;28;20068;-78
2023/05/02 07:56:07;;;;;;;9.02;5.38;;;;;;;;;;5035414;28;20060;-78
2023/05/02 07:58:34;;;;;;;8.27;4.93;;;;;;;;;;5035558;28;20463;-78
2023/05/02 08:00:59;;;;;;;6.50;4.35;;;;;;;;;;5035445;28;20026;-76
2023/05/02 08:03:26;;;;;;;6.70;3.80;;;;;;;;;;5035452;28;20029;-78
2023/05/02 08:05:52;;;;;;;8.57;4.78;;;;;;;;;;5035384;28;20049;-79
2023/05/02 08:08:17;;;;;;;7.88;4.32;;;;;;;;;;5034346;28;20140;-73
2023/05/02 08:10:43;;;;;;;7.18;4.95;;;;;;;;;;5035198;28;20029;-77
2023/05/02 08:13:08;;;;;;;12.27;5.30;;;;;;;;;;5035353;28;20029;-78
2023/05/02 08:15:34;;;;;;;6.68;3.92;;;;;;;;;;5035330;28;20482;-73
2023/05/02 08:18:00;;;;;;;10.93;4.50;;;;;;;;;;5035169;28;20122;-79
2023/05/02 08:20:25;;;;;;;7.18;4.18;;;;;;;;;;5034640;28;20025;-74
2023/05/02 08:22:50;;;;;;;7.90;4.20;;;;;;;;;;5035272;28;20069;-77
2023/05/02 08:25:16;;;;;;;9.60;4.20;;;;;;;;;;5034688;28;20049;-77
2023/05/02 08:27:41;;;;;;;13.60;4.80;;;;;;;;;;5034852;28;20108;-77
2023/05/02 08:30:07;;;;;;;9.60;5.28;;;;;;;;;;5035049;28;20112;-76
2023/05/02 08:32:32;;;;;;;7.03;4.38;;;;;;;;;;5034845;28;20025;-78
2023/05/02 08:34:58;;;;;;;7.10;4.10;;;;;;;;;;5034751;28;20024;-73
2023/05/02 08:37:23;;;;;;;6.82;4.50;;;;;;;;;;5034630;28;20025;-77
2023/05/02 08:39:49;;;;;;;7.18;4.05;;;;;;;;;;5034691;28;20037;-74
2023/05/02 08:42:14;;;;;;;5.82;3.55;;;;;;;;;;5034803;28;20025;-77
2023/05/02 08:44:40;;;;;;;8.98;4.00;;;;;;;;;;5034535;28;20060;-74
2023/05/02 08:47:06;;;;;;;6.30;3.97;;;;;;;;;;5034466;28;20021;-75
2023/05/02 08:49:34;;;;;;;6.40;3.00;;;;;;;;;;5034686;28;20025;-75
2023/05/02 08:52:01;;;;;;;5.32;3.28;;;;;;;;;;5034580;28;20037;-77
2023/05/02 08:54:26;;;;;;;8.98;2.63;;;;;;;;;;5034256;28;20048;-75
2023/05/02 08:56:58;;;;;;;3.83;2.25;;;;;;;;;;5034385;28;20494;-75
2023/05/02 08:59:23;;;;;;;3.72;2.20;;;;;;;;;;5034450;28;20041;-72
2023/05/02 09:01:54;;;;;;;4.32;2.28;;;;;;;;;;5034400;28;20030;-73
2023/05/02 09:04:23;;;;;;;6.60;2.03;;;;;;;;;;5034329;28;20076;-79
2023/05/02 09:06:48;;;;;;;2.90;1.70;;;;;;;;;;5033096;28;20036;-74
2023/05/02 09:09:13;;;;;;;3.00;2.00;;;;;;;;;;5033555;28;20463;-72
2023/05/02 09:11:39;;;;;;;8.57;2.20;;;;;;;;;;5034148;28;20075;-75
2023/05/02 09:14:14;;;;;;;8.63;2.38;;;;;;;;;;5034202;28;20021;-76
2023/05/02 09:16:39;;;;;;;6.63;2.05;;;;;;;;;;5032945;28;20030;-77
2023/05/02 09:19:05;;;;;;;5.78;2.13;;;;;;;;;;5033919;28;20512;-78
2023/05/02 09:21:42;;;;;;;5.93;2.00;;;;;;;;;;5033604;28;20037;-78
2023/05/02 09:24:19;;;;;;;4.47;2.00;;;;;;;;;;5033735;28;20060;-76
2023/05/02 09:27:01;;;;;;;6.68;2.08;;;;;;;;;;5033428;28;20048;-78
2023/05/02 09:29:29;;;;;;;12.57;2.63;;;;;;;;;;5033900;28;20064;-74
2023/05/02 09:31:55;;;;;;;5.30;1.88;;;;;;;;;;5033693;28;20026;-76
2023/05/02 09:34:21;;;;;;;6.72;1.90;;;;;;;;;;5033574;28;20033;-76
2023/05/02 09:36:50;;;;;;;9.55;2.33;;;;;;;;;;5033529;28;20030;-77
2023/05/02 09:39:28;;;;;;;7.80;2.55;;;;;;;;;;5033352;28;20030;-74
2023/05/02 09:41:54;;;;;;;16.85;2.67;;;;;;;;;;5033565;28;20031;-78
2023/05/02 09:44:22;;;;;;;5.63;2.55;;;;;;;;;;5033465;28;20501;-75
2023/05/02 09:46:50;;;;;;;8.25;2.35;;;;;;;;;;5033365;28;20044;-77
2023/05/02 09:49:19;;;;;;;6.57;2.38;;;;;;;;;;5033455;28;20119;-77
2023/05/02 09:51:47;;;;;;;8.55;2.00;;;;;;;;;;5033344;28;20022;-77
2023/05/02 09:54:32;;;;;;;11.30;2.38;;;;;;;;;;5033478;28;20144;-74
2023/05/02 09:56:58;;;;;;;4.55;1.52;;;;;;;;;;5033422;28;20021;-78
2023/05/02 09:59:23;;;;;;;3.83;1.40;;;;;;;;;;5033538;28;20029;-78
2023/05/02 10:01:55;;;;;;;6.03;1.90;;;;;;;;;;5033302;28;20029;-78
2023/05/02 10:04:21;;;;;;;4.30;1.50;;;;;;;;;;5031847;28;20034;-80
2023/05/02 10:06:48;;;;;;;6.15;1.45;;;;;;;;;;5032921;28;20040;-76
2023/05/02 10:09:14;;;;;;;5.70;1.83;;;;;;;;;;5032960;28;20036;-75
2023/05/02 10:11:41;;;;;;;8.50;1.90;;;;;;;;;;5033171;28;20029;-79
2023/05/02 10:14:11;;;;;;;7.20;2.10;;;;;;;;;;5032967;28;20117;-75
2023/05/02 10:17:08;;;;;;;12.73;2.00;;;;;;;;;;5033071;28;20018;-79
2023/05/02 10:19:55;;;;;;;6.35;2.10;;;;;;;;;;5030998;28;20049;-78
2023/05/02 10:22:22;;;;;;;9.10;2.58;;;;;;;;;;5032661;28;20542;-70
2023/05/02 10:24:52;;;;;;;10.77;2.60;;;;;;;;;;5033064;28;20030;-81
2023/05/02 10:27:17;;;;;;;7.55;2.38;;;;;;;;;;5032699;28;20060;-69
2023/05/02 10:29:44;;;;;;;7.43;2.50;;;;;;;;;;5032627;28;20445;-76
2023/05/02 10:32:10;;;;;;;7.93;2.00;;;;;;;;;;5032325;28;20042;-77
2023/05/02 10:34:37;;;;;;;7.45;2.45;;;;;;;;;;5032743;28;20368;-77
2023/05/02 10:37:03;;;;;;;8.63;2.15;;;;;;;;;;5032411;28;20128;-74
2023/05/02 10:39:30;;;;;;;15.80;2.97;;;;;;;;;;5032712;28;20025;-77
2023/05/02 10:41:59;;;;;;;9.73;2.20;;;;;;;;;;5032797;28;20029;-77
2023/05/02 10:44:35;;;;;;;23.40;2.80;;;;;;;;;;5032608;28;20029;-77
2023/05/02 10:47:17;;;;;;;8.07;2.45;;;;;;;;;;5032651;28;20049;-77
2023/05/02 10:49:51;;;;;;;15.25;3.45;;;;;;;;;;5032606;28;20094;-78
2023/05/02 10:52:32;;;;;;;10.18;2.83;;;;;;;;;;5032600;28;20029;-75
2023/05/02 10:55:20;;;;;;;6.63;2.63;;;;;;;;;;5032601;28;20112;-76
2023/05/02 10:57:58;;;;;;;11.23;2.65;;;;;;;;;;5032569;28;20112;-77
2023/05/02 11:00:25;;;;;;;11.95;2.08;;;;;;;;;;5032656;28;20030;-72
2023/05/02 11:02:51;;;;;;;6.85;1.75;;;;;;;;;;5032518;28;20485;-76
2023/05/02 11:05:17;;;;;;;9.82;2.60;;;;;;;;;;5032398;28;20036;-78
2023/05/02 11:07:42;;;;;;;9.90;2.28;;;;;;;;;;5032421;28;20025;-72
2023/05/02 11:10:14;;;;;;;9.43;2.10;;;;;;;;;;5032023;28;20018;-76
2023/05/02 11:12:46;;;;;;;13.60;2.80;;;;;;;;;;5032587;28;20057;-79
2023/05/02 11:15:12;;;;;;;9.30;2.13;;;;;;;;;;5032483;28;20033;-76
2023/05/02 11:18:06;;;;;;;6.90;2.05;;;;;;;;;;5032406;28;20030;-77
2023/05/02 11:20:32;;;;;;;7.65;2.25;;;;;;;;;;5031787;28;20048;-78
2023/05/02 11:23:20;;;;;;;10.63;2.42;;;;;;;;;;5031928;28;20057;-75
2023/05/02 11:25:54;;;;;;;10.07;3.13;;;;;;;;;;5031934;28;20050;-73
2023/05/02 11:28:37;;;;;;;9.18;2.80;;;;;;;;;;5032443;28;20051;-73
2023/05/02 11:31:05;;;;;;;11.70;2.78;;;;;;;;;;5032201;28;20029;-77
2023/05/02 11:33:31;;;;;;;5.18;1.90;;;;;;;;;;5031867;28;20504;-75
2023/05/02 11:35:57;;;;;;;12.60;2.78;;;;;;;;;;5032237;28;20022;-76
2023/05/02 11:38:23;;;;;;;7.60;2.47;;;;;;;;;;5032046;28;20033;-75
2023/05/02 11:40:52;;;;;;;15.20;2.80;;;;;;;;;;5032316;28;20505;-75
2023/05/02 11:43:20;;;;;;;11.43;2.53;;;;;;;;;;5032667;28;20041;-74
2023/05/02 11:45:46;;;;;;;9.55;2.83;;;;;;;;;;5035680;28;20159;-76
2023/05/02 11:48:13;;;;;;;10.02;3.60;;;;;;;;;;5035382;28;20104;-76
2023/05/02 11:50:46;;;;;;;9.25;2.97;;;;;;;;;;5035612;28;20021;-77
2023/05/02 11:53:16;;;;;;;12.00;2.90;;;;;;;;;;5035408;28;20495;-77
2023/05/02 11:55:53;;;;;;;8.98;2.20;;;;;;;;;;5035692;28;20434;-77
2023/05/02 11:58:21;;;;;;;8.90;2.75;;;;;;;;;;5035577;28;20490;-72
2023/05/02 12:00:47;;;;;;;6.75;2.05;;;;;;;;;;5035359;28;20040;-76
2023/05/02 12:03:25;;;;;;;7.88;2.20;;;;;;;;;;5035178;28;20029;-70
2023/05/02 12:05:51;;;;;;;9.07;2.42;;;;;;;;;;5034166;28;20426;-70
2023/05/02 12:08:22;;;;;;;22.30;3.65;;;;;;;;;;5035371;28;20091;-74
2023/05/02 12:10:50;;;;;;;7.47;2.10;;;;;;;;;;5035238;28;20029;-71
2023/05/02 12:13:16;;;;;;;5.78;2.10;;;;;;;;;;5033964;28;20030;-76
2023/05/02 12:15:41;;;;;;;10.48;2.80;;;;;;;;;;5035331;28;20128;-77
2023/05/02 12:18:08;;;;;;;11.23;2.58;;;;;;;;;;5034957;28;20519;-79
2023/05/02 12:20:34;;;;;;;10.88;2.28;;;;;;;;;;5033682;28;20471;-76
2023/05/02 12:23:00;;;;;;;7.72;2.08;;;;;;;;;;5035083;28;20026;-76
2023/05/02 12:25:25;;;;;;;10.50;2.50;;;;;;;;;;5034992;28;20104;-78
2023/05/02 12:28:01;;;;;;;7.80;2.53;;;;;;;;;;5034961;28;20026;-70
2023/05/02 12:30:28;;;;;;;8.32;2.13;;;;;;;;;;5034871;28;20041;-77
2023/05/02 12:32:57;;;;;;;11.70;2.55;;;;;;;;;;5034748;28;20071;-73
2023/05/02 12:35:23;;;;;;;9.30;2.45;;;;;;;;;;5035009;28;20067;-73
2023/05/02 12:37:49;;;;;;;9.73;3.33;;;;;;;;;;5034732;28;20025;-71
2023/05/02 12:40:16;;;;;;;9.90;2.65;;;;;;;;;;5034700;28;20033;-74
2023/05/02 12:42:42;;;;;;;7.72;2.30;;;;;;;;;;5034772;28;20082;-77
2023/05/02 12:45:17;;;;;;;6.43;2.10;;;;;;;;;;5034766;28;20104;-77
2023/05/02 12:47:45;;;;;;;7.80;3.53;;;;;;;;;;5034545;28;20033;-78
2023/05/02 12:50:11;;;;;;;9.32;3.50;;;;;;;;;;5034624;28;20064;-74
2023/05/02 12:52:47;;;;;;;11.32;3.58;;;;;;;;;;5034507;28;20051;-69
2023/05/02 12:55:16;;;;;;;10.82;2.40;;;;;;;;;;5034163;28;20022;-75
2023/05/02 12:57:42;;;;;;;10.73;4.15;;;;;;;;;;5034372;28;20100;-77
2023/05/02 13:00:08;;;;;;;9.35;4.82;;;;;;;;;;5034076;28;20149;-76
2023/05/02 13:02:34;;;;;;;10.75;2.50;;;;;;;;;;5034184;28;20030;-72
2023/05/02 13:04:59;;;;;;;9.82;3.28;;;;;;;;;;5034420;28;20026;-75
2023/05/02 13:07:25;;;;;;;9.68;4.82;;;;;;;;;;5034395;28;20027;-77
2023/05/02 13:09:50;;;;;;;15.88;5.30;;;;;;;;;;5034044;28;20033;-76
2023/05/02 13:12:16;;;;;;;7.25;3.08;;;;;;;;;;5034121;28;20037;-64
2023/05/02 13:14:42;;;;;;;7.95;2.60;;;;;;;;;;5034003;28;20033;-78
2023/05/02 13:17:08;;;;;;;10.18;2.67;;;;;;;;;;5033840;28;20025;-76
2023/05/02 13:19:33;;;;;;;7.50;2.83;;;;;;;;;;5033600;28;20021;-73
2023/05/02 13:21:59;;;;;;;7.68;2.42;;;;;;;;;;5033699;28;20075;-73
2023/05/02 13:24:24;;;;;;;15.32;2.83;;;;;;;;;;5033956;28;20036;-66
2023/05/02 13:26:50;;;;;;;8.90;2.00;;;;;;;;;;5033585;28;20041;-70
2023/05/02 13:29:16;;;;;;;9.70;3.10;;;;;;;;;;5033745;28;20034;-78
2023/05/02 13:31:41;;;;;;;6.78;2.17;;;;;;;;;;5033689;28;20056;-77
2023/05/02 13:34:07;;;;;;;6.93;2.45;;;;;;;;;;5033643;28;20459;-74
2023/05/02 13:36:32;;;;;;;13.73;3.05;;;;;;;;;;5033631;28;20460;-74
2023/05/02 13:38:58;;;;;;;12.68;4.70;;;;;;;;;;5033709;28;20025;-75
2023/05/02 13:41:23;;;;;;;7.80;3.15;;;;;;;;;;5033547;28;20379;-72
2023/05/02 13:43:49;;;;;;;33.53;16.35;;;;;;;;;;5033172;28;20025;-74
2023/05/02 13:46:15;;;;;;;10.35;3.25;;;;;;;;;;5033544;28;20382;-74
2023/05/02 13:48:40;;;;;;;21.02;11.70;;;;;;;;;;5033375;28;20037;-75
2023/05/02 13:51:06;;;;;;;10.55;3.65;;;;;;;;;;5033247;28;20071;-75
2023/05/02 13:53:32;;;;;;;8.32;3.10;;;;;;;;;;5033315;28;20032;-77
2023/05/02 13:55:57;;;;;;;10.70;2.50;;;;;;;;;;5033367;28;20433;-75
2023/05/02 13:58:22;;;;;;;15.23;3.30;;;;;;;;;;5033079;28;20029;-75
2023/05/02 14:00:48;;;;;;;6.20;2.63;;;;;;;;;;5033309;28;20021;-75
2023/05/02 14:03:13;;;;;;;9.30;2.72;;;;;;;;;;5033072;28;20076;-77
2023/05/02 14:05:42;;;;;;;5.65;2.10;;;;;;;;;;5032736;28;20074;-77
2023/05/02 14:08:11;;;;;;;8.65;2.60;;;;;;;;;;5032914;28;20030;-78
2023/05/02 14:10:36;;;;;;;6.93;2.40;;;;;;;;;;5033007;28;20188;-73
2023/05/02 14:13:02;;;;;;;7.28;2.50;;;;;;;;;;5032956;28;20108;-77
2023/05/02 14:15:28;;;;;;;13.02;3.13;;;;;;;;;;5033141;28;20021;-67
2023/05/02 14:17:53;;;;;;;4.55;1.73;;;;;;;;;;5033082;28;20132;-76
2023/05/02 14:20:19;;;;;;;9.30;2.60;;;;;;;;;;5032487;28;20030;-66
2023/05/02 14:22:44;;;;;;;10.48;3.47;;;;;;;;;;5032718;28;20033;-64
2023/05/02 14:25:10;;;;;;;10.25;3.67;;;;;;;;;;5032664;28;20026;-65
2023/05/02 14:27:35;;;;;;;8.02;2.72;;;;;;;;;;5032659;28;20033;-69
2023/05/02 14:30:01;;;;;;;13.25;3.83;;;;;;;;;;5032409;28;20041;-76
2023/05/02 14:32:32;;;;;;;8.73;3.03;;;;;;;;;;5032905;28;20025;-70
2023/05/02 14:34:58;;;;;;;6.00;2.95;;;;;;;;;;5032856;28;20017;-68
2023/05/02 14:37:24;;;;;;;11.13;2.70;;;;;;;;;;5032609;28;20021;-70
2023/05/02 14:39:51;;;;;;;7.47;2.17;;;;;;;;;;5032754;28;20382;-66
2023/05/02 14:42:16;;;;;;;8.60;2.70;;;;;;;;;;5032543;28;20393;-68